Nearby METAR Reports

 

KMQY - Smyrna, Tennessee, USA
Distance from station: WNW 14mi, 22km
Updated: Wed, 29-Jan-2020 7:56am CST
Light rain, Overcast
Light rain, Overcast
 Wind from NNE
Wind: NNE 6 mph , 9 km/h
Temperature: 37°F , 3°C
Wind Chill: 32°F , 0°C
Dew Point: 36°F , 2°C
Humidity: 93%
Barometer: 30.10 inHg , 1019.3 hPa
Summary: Light rain
Clouds: Overcast
Visibility: 9 miles , 14 km
Cloud details: Mostly cloudy 6500 ft
Overcast 9000 ft
2020/01/29 13:56 KMQY 291356Z 02005KT 9SM -RA BKN065 OVC090 03/02 A3010 RMK AO2 SLP202 DZB14E29 P0000 T00330022
KSYI - Shelbyville, Tennessee, USA
Distance from station: SSW 25mi, 40km
Updated: Wed, 29-Jan-2020 8:35am CST
Overcast
Overcast
 Wind from NNW
Wind: NNW 5 mph , 7 km/h
Temperature: 39°F , 4°C
Wind Chill: 35°F , 2°C
Dew Point: 37°F , 3°C
Humidity: 93%
Barometer: 30.05 inHg , 1017.6 hPa
Clouds: Overcast
Visibility: 9 miles , 14 km
Cloud details: Overcast 7000 ft
2020/01/29 14:35 KSYI 291435Z AUTO 33004KT 9SM OVC070 04/03 A3005 RMK A01
KBNA - Nashville, Tennessee, USA
Distance from station: NW 25mi, 41km
Updated: Wed, 29-Jan-2020 7:53am CST
Mist, Overcast
Mist, Overcast
 Wind from NNE
Wind: NNE 7 mph , 11 km/h
Temperature: 39°F , 4°C
Wind Chill: 34°F , 1°C
Dew Point: 34°F , 1°C
Humidity: 81%
Barometer: 30.09 inHg , 1019 hPa
Summary: Mist
Clouds: Overcast
Visibility: 5 miles , 8 km
Cloud details: Few Clouds 5000 ft
Partly cloudy 6500 ft
Overcast 8500 ft
2020/01/29 13:53 KBNA 291353Z 03006KT 5SM BR FEW050 SCT065 OVC085 04/01 A3009 RMK AO2 RAE36 SLP191 P0000 T00440006
 
KRNC - Mcminnville, Tennessee, USA
Distance from station: ESE 30mi, 48km
Updated: Wed, 29-Jan-2020 8:35am CST
Partly cloudy
Partly cloudy
 Wind from NE
Wind: NE 6 mph , 9 km/h
Temperature: 39°F , 4°C
Wind Chill: 35°F , 2°C
Dew Point: 36°F , 2°C
Humidity: 87%
Barometer: 30.05 inHg , 1017.6 hPa
Clouds: Partly cloudy
Visibility: 8 miles , 13 km
Cloud details: Few Clouds 4700 ft
Partly cloudy 6500 ft
2020/01/29 14:35 KRNC 291435Z AUTO 05005KT 8SM FEW047 SCT065 04/02 A3005 RMK A01
KM33 - Gallatin, Tennessee, USA
Distance from station: N 33mi, 54km
Updated: Wed, 23-May-2018 7:55pm CDT
NOT Current
Clear
Clear
 Wind from calm
Wind: Calm
Temperature: 79°F , 26°C
Dew Point: 66°F , 19°C
Humidity: 65%
Barometer: 30.10 inHg , 1019.3 hPa
Clouds: Clear
Visibility: 10 miles , 16 km
2018/05/24 00:55 KM33 240055Z AUTO 00000KT 10SM CLR 26/19 A3010 RMK A01
KTHA - Tullahoma, Tennessee, USA
Distance from station: S 36mi, 59km
Updated: Wed, 29-Jan-2020 8:35am CST
Overcast
Overcast
 Wind from calm
Wind: Calm
Temperature: 41°F , 5°C
Dew Point: 36°F , 2°C
Humidity: 81%
Barometer: 30.03 inHg , 1016.9 hPa
Clouds: Overcast
Visibility: 10 miles , 16 km
Cloud details: Mostly cloudy 6000 ft
Mostly cloudy 7000 ft
Overcast 8000 ft
2020/01/29 14:35 KTHA 291435Z AUTO 00000KT 10SM BKN060 BKN070 OVC080 05/02 A3003 RMK A01
 
KJWN - Nashv/Jc Tune, Tennessee, USA
Distance from station: WNW 37mi, 60km
Updated: Wed, 29-Jan-2020 8:35am CST
Mist, Overcast
Mist, Overcast
 Wind from NE
Wind: NE 7 mph , 11 km/h
Temperature: 39°F , 4°C
Wind Chill: 34°F , 1°C
Dew Point: 36°F , 2°C
Humidity: 87%
Barometer: 30.07 inHg , 1018.3 hPa
Summary: Mist
Clouds: Overcast
Visibility: 5 miles , 8 km
Cloud details: Overcast 4900 ft
2020/01/29 14:35 KJWN 291435Z AUTO 04006KT 5SM BR OVC049 04/02 A3007 RMK A01
KSRB - Sparta, Tennessee, USA
Distance from station: ENE 45mi, 72km
Updated: Wed, 29-Jan-2020 8:35am CST
Mist, Few clouds
Mist, Few clouds
 Wind from NNW
Wind: NNW 3 mph , 6 km/h
Temperature: 37°F , 3°C
Dew Point: 36°F , 2°C
Humidity: 93%
Barometer: 30.07 inHg , 1018.3 hPa
Summary: Mist
Clouds: Few Clouds
Visibility: 5 miles , 8 km
Cloud details: Few Clouds 3700 ft
Few Clouds 4400 ft
2020/01/29 14:35 KSRB 291435Z AUTO 33003KT 5SM BR FEW037 FEW044 03/02 A3007 RMK A01
K1M5 - Portland, Tennessee, USA
Distance from station: NNW 49mi, 78km
Updated: Wed, 29-Jan-2020 8:35am CST
Mist, Overcast
Mist, Overcast
 Wind from NE
Wind: NE 5 mph , 7 km/h
Temperature: 37°F , 3°C
Wind Chill: 33°F , 1°C
Dew Point: 36°F , 2°C
Humidity: 93%
Barometer: 30.08 inHg , 1018.6 hPa
Summary: Mist
Clouds: Overcast
Visibility: 6 miles , 10 km
Cloud details: Overcast 4300 ft
2020/01/29 14:35 K1M5 291435Z AUTO 04004KT 6SM BR OVC043 03/02 A3008 RMK A01